createdAt,value
2023-05-20T00:02:24.525Z,95.32
2023-05-20T00:05:17.770Z,95.23
2023-05-20T00:07:51.827Z,95.26
2023-05-20T00:10:38.120Z,95.59
2023-05-20T00:13:32.066Z,95.84
2023-05-20T00:16:25.102Z,95.79
2023-05-20T00:19:19.596Z,95.65
2023-05-20T00:22:04.974Z,95.57
2023-05-20T00:24:42.196Z,95.53
2023-05-20T00:27:33.757Z,95.39
2023-05-20T00:30:13.664Z,95.45
2023-05-20T00:33:06.812Z,95.38
2023-05-20T00:35:59.789Z,95.34
2023-05-20T00:38:46.509Z,95.46
2023-05-20T00:41:29.351Z,95.57
2023-05-20T00:44:13.801Z,95.67
2023-05-20T00:47:06.857Z,95.74
2023-05-20T00:50:02.014Z,95.63
2023-05-20T00:52:55.536Z,95.57
2023-05-20T00:55:37.130Z,95.35
2023-05-20T00:58:10.447Z,95.29
2023-05-20T01:00:43.970Z,95.59
2023-05-20T01:03:17.193Z,95.59
2023-05-20T01:05:49.767Z,95.97
2023-05-20T01:08:22.534Z,95.92
2023-05-20T01:11:05.338Z,95.60
2023-05-20T01:13:42.939Z,96.11
2023-05-20T01:16:19.887Z,95.87
2023-05-20T01:18:57.495Z,95.83
2023-05-20T01:21:32.406Z,96.18
2023-05-20T01:24:05.991Z,96.20
2023-05-20T01:26:40.031Z,96.24
2023-05-20T01:29:14.102Z,96.12
2023-05-20T01:31:48.841Z,96.23
2023-05-20T01:34:21.794Z,96.13
2023-05-20T01:36:56.189Z,96.40
2023-05-20T01:39:29.335Z,96.43
2023-05-20T01:42:03.483Z,96.38
2023-05-20T01:44:36.743Z,96.51
2023-05-20T01:47:10.652Z,96.67
2023-05-20T01:49:46.362Z,96.48
2023-05-20T01:52:18.699Z,96.31
2023-05-20T01:54:52.184Z,96.50
2023-05-20T01:57:25.581Z,96.60
2023-05-20T01:59:58.575Z,96.79
2023-05-20T02:02:32.076Z,96.66
2023-05-20T02:05:04.807Z,96.67
2023-05-20T02:07:37.731Z,96.70
2023-05-20T02:10:14.555Z,96.92
2023-05-20T02:12:48.002Z,97.07
2023-05-20T02:15:21.213Z,97.09
2023-05-20T02:17:58.349Z,96.95
2023-05-20T02:20:32.477Z,97.00
2023-05-20T02:23:07.079Z,96.94
2023-05-20T02:25:39.820Z,96.88
2023-05-20T02:28:12.864Z,96.58
2023-05-20T02:31:05.634Z,96.74
2023-05-20T02:33:51.111Z,96.68
2023-05-20T02:36:44.314Z,96.59
2023-05-20T02:39:37.295Z,96.84
2023-05-20T02:42:24.927Z,96.76
2023-05-20T02:45:01.655Z,96.85
2023-05-20T02:47:54.785Z,97.06
2023-05-20T02:50:39.575Z,97.12
2023-05-20T02:53:25.077Z,97.26
2023-05-20T02:56:21.738Z,97.26
2023-05-20T02:59:08.688Z,97.14
2023-05-20T03:02:03.393Z,97.01
2023-05-20T03:04:56.206Z,96.99
2023-05-20T03:07:42.375Z,96.86
2023-05-20T03:10:19.246Z,96.86
2023-05-20T03:12:54.292Z,96.45
2023-05-20T03:15:42.863Z,96.02
2023-05-20T03:18:25.441Z,95.71
2023-05-20T03:21:18.180Z,95.87
2023-05-20T03:24:10.907Z,95.66
2023-05-20T03:27:03.701Z,95.63
2023-05-20T03:29:56.449Z,95.67
2023-05-20T03:32:49.178Z,95.60
2023-05-20T03:35:36.864Z,95.48
2023-05-20T03:38:30.041Z,95.68
2023-05-20T03:41:22.576Z,95.91
2023-05-20T03:44:08.512Z,96.11
2023-05-20T03:47:01.694Z,96.18
2023-05-20T03:49:44.646Z,96.31
2023-05-20T03:52:39.162Z,96.36
2023-05-20T03:55:32.608Z,96.47
2023-05-20T03:58:25.500Z,96.42
2023-05-20T04:01:18.461Z,96.50
2023-05-20T04:04:11.081Z,96.38
2023-05-20T04:07:05.139Z,96.40
2023-05-20T04:09:51.009Z,96.02
2023-05-20T04:12:38.464Z,96.06
2023-05-20T04:15:30.022Z,95.99
2023-05-20T04:18:03.942Z,95.69
2023-05-20T04:20:47.830Z,95.23
2023-05-20T04:23:40.919Z,94.58
2023-05-20T04:26:26.025Z,94.07
2023-05-20T04:29:19.139Z,93.91
2023-05-20T04:32:12.270Z,93.42
2023-05-20T04:35:08.603Z,93.06
2023-05-20T04:38:01.181Z,92.82
2023-05-20T04:40:54.003Z,92.31
2023-05-20T04:43:31.075Z,91.84
2023-05-20T04:46:24.495Z,91.82
2023-05-20T04:49:17.399Z,91.96
2023-05-20T04:51:55.665Z,91.84
2023-05-20T04:54:42.041Z,91.26
2023-05-20T04:57:14.815Z,90.99
2023-05-20T04:59:47.564Z,91.11
2023-05-20T05:02:20.351Z,90.73
2023-05-20T05:04:53.229Z,90.64
2023-05-20T05:07:25.977Z,90.31
2023-05-20T05:09:58.860Z,89.98
2023-05-20T05:12:32.954Z,89.61
2023-05-20T05:15:05.791Z,89.40
2023-05-20T05:17:38.267Z,89.25
2023-05-20T05:20:12.929Z,89.35
2023-05-20T05:22:45.868Z,89.41
2023-05-20T05:25:19.424Z,89.44
2023-05-20T05:27:51.977Z,89.19
2023-05-20T05:30:24.911Z,88.91
2023-05-20T05:32:57.778Z,88.57
2023-05-20T05:35:31.262Z,88.50
2023-05-20T05:38:07.238Z,88.49
2023-05-20T05:40:40.475Z,88.49
2023-05-20T05:43:13.000Z,88.66
2023-05-20T05:45:45.794Z,88.69
2023-05-20T05:48:20.115Z,88.39
2023-05-20T05:50:56.912Z,88.30
2023-05-20T05:53:29.661Z,87.97
2023-05-20T05:56:02.611Z,87.31
2023-05-20T05:58:37.330Z,86.87
2023-05-20T06:01:10.984Z,86.88
2023-05-20T06:03:44.141Z,86.50
2023-05-20T06:06:17.056Z,86.90
2023-05-20T06:08:50.518Z,86.76
2023-05-20T06:11:24.819Z,86.00
2023-05-20T06:13:57.410Z,85.19
2023-05-20T06:16:33.248Z,84.52
2023-05-20T06:19:06.692Z,84.02
2023-05-20T06:21:41.480Z,83.50
2023-05-20T06:24:14.451Z,83.69
2023-05-20T06:26:51.151Z,83.41
2023-05-20T06:29:26.209Z,83.50
2023-05-20T06:31:59.017Z,82.26
2023-05-20T06:34:32.221Z,81.49
2023-05-20T06:37:04.528Z,80.31
2023-05-20T06:39:37.257Z,80.31
2023-05-20T06:42:10.011Z,80.01
2023-05-20T06:44:42.657Z,78.79
2023-05-20T06:47:27.393Z,78.39
2023-05-20T06:50:03.262Z,77.94
2023-05-20T06:52:36.678Z,77.46
2023-05-20T06:55:13.109Z,76.91
2023-05-20T06:57:46.159Z,76.76
2023-05-20T07:00:22.998Z,76.79
2023-05-20T07:02:59.936Z,75.98
2023-05-20T07:05:32.823Z,75.47
2023-05-20T07:08:05.826Z,74.35
2023-05-20T07:10:39.544Z,74.30
2023-05-20T07:13:13.046Z,74.79
2023-05-20T07:15:47.517Z,74.77
2023-05-20T07:18:21.685Z,73.67
2023-05-20T07:20:58.099Z,73.32
2023-05-20T07:23:49.056Z,72.62
2023-05-20T07:26:21.806Z,72.72
2023-05-20T07:29:11.820Z,72.41
2023-05-20T07:31:57.586Z,70.94
2023-05-20T07:34:41.483Z,70.80
2023-05-20T07:37:25.595Z,71.55
2023-05-20T07:40:16.314Z,70.51
2023-05-20T07:43:02.666Z,69.15
2023-05-20T07:45:55.583Z,68.20
2023-05-20T07:48:31.203Z,67.51
2023-05-20T07:51:07.005Z,67.46
2023-05-20T07:53:54.268Z,67.26
2023-05-20T07:56:30.753Z,66.87
2023-05-20T07:59:24.019Z,66.27
2023-05-20T08:02:07.223Z,65.83
2023-05-20T08:04:45.645Z,65.53
2023-05-20T08:07:28.297Z,65.34
2023-05-20T08:10:03.993Z,65.85
2023-05-20T08:12:36.802Z,65.38
2023-05-20T08:15:29.640Z,65.05
2023-05-20T08:18:02.621Z,65.79
2023-05-20T08:20:55.581Z,64.71
2023-05-20T08:23:40.546Z,64.31
2023-05-20T08:26:26.950Z,65.26
2023-05-20T08:29:19.825Z,65.05
2023-05-20T08:31:55.854Z,64.55
2023-05-20T08:34:43.358Z,64.94
2023-05-20T08:37:25.307Z,64.97
2023-05-20T08:40:11.903Z,64.63
2023-05-20T08:42:57.939Z,64.85
2023-05-20T08:45:33.105Z,64.58
2023-05-20T08:48:20.867Z,63.86
2023-05-20T08:51:07.392Z,62.78
2023-05-20T08:53:50.415Z,61.96
2023-05-20T08:56:23.938Z,60.93
2023-05-20T08:59:16.999Z,60.62
2023-05-20T09:02:02.080Z,59.88
2023-05-20T09:04:34.902Z,59.19
2023-05-20T09:07:11.002Z,58.74
2023-05-20T09:10:04.251Z,59.74
2023-05-20T09:12:46.920Z,60.18
2023-05-20T09:15:43.361Z,58.99
2023-05-20T09:18:16.754Z,58.81
2023-05-20T09:21:11.835Z,58.33
2023-05-20T09:23:53.318Z,58.56
2023-05-20T09:26:30.555Z,59.30
2023-05-20T09:29:03.370Z,59.24
2023-05-20T09:31:39.899Z,59.51
2023-05-20T09:34:22.038Z,58.91
2023-05-20T09:37:15.678Z,57.70
2023-05-20T09:39:58.111Z,59.09
2023-05-20T09:42:44.294Z,58.25
2023-05-20T09:45:17.081Z,58.77
2023-05-20T09:48:13.259Z,59.64
2023-05-20T09:51:06.165Z,59.65
2023-05-20T09:54:00.892Z,58.81
2023-05-20T09:56:54.922Z,59.06
2023-05-20T09:59:51.710Z,58.92
2023-05-20T10:02:47.792Z,58.49
2023-05-20T10:05:31.399Z,58.55
2023-05-20T10:08:43.893Z,58.28
2023-05-20T10:11:37.701Z,59.79
2023-05-20T10:14:36.615Z,60.02
2023-05-20T10:17:40.631Z,59.14
2023-05-20T10:20:36.810Z,58.92
2023-05-20T10:23:30.057Z,59.97
2023-05-20T10:26:22.990Z,60.23
2023-05-20T10:29:18.104Z,60.82
2023-05-20T10:31:52.559Z,61.78
2023-05-20T10:34:52.593Z,61.78
2023-05-20T10:37:30.016Z,61.61
2023-05-20T10:40:24.696Z,62.48
2023-05-20T10:43:26.799Z,62.30
2023-05-20T10:46:33.933Z,62.23
2023-05-20T10:49:27.470Z,62.60
2023-05-20T10:52:22.062Z,62.82
2023-05-20T10:55:23.718Z,61.52
2023-05-20T10:58:08.432Z,61.87
2023-05-20T11:01:01.146Z,63.31
2023-05-20T11:03:38.805Z,63.58
2023-05-20T11:06:31.953Z,62.25
2023-05-20T11:09:24.958Z,61.93
2023-05-20T11:12:18.155Z,62.41
2023-05-20T11:15:03.043Z,61.84
2023-05-20T11:17:58.657Z,61.14
2023-05-20T11:20:40.200Z,62.05
2023-05-20T11:23:26.497Z,61.50
2023-05-20T11:26:10.657Z,61.68
2023-05-20T11:29:06.600Z,61.27
2023-05-20T11:32:00.739Z,60.83
2023-05-20T11:34:55.365Z,62.51
2023-05-20T11:37:41.725Z,62.67
2023-05-20T11:40:32.913Z,62.37
2023-05-20T11:43:35.499Z,60.47
2023-05-20T11:46:28.727Z,61.42
2023-05-20T11:49:11.155Z,60.99
2023-05-20T11:52:09.488Z,61.16
2023-05-20T11:54:41.877Z,61.13
2023-05-20T11:57:24.835Z,61.14
2023-05-20T12:00:18.067Z,60.43
2023-05-20T12:03:01.859Z,61.19
2023-05-20T12:05:56.104Z,61.19
2023-05-20T12:08:49.413Z,61.39
2023-05-20T12:11:44.775Z,60.87
2023-05-20T12:14:17.649Z,59.65
2023-05-20T12:17:00.301Z,60.22
2023-05-20T12:19:53.279Z,59.48
2023-05-20T12:22:34.708Z,58.92
2023-05-20T12:25:28.925Z,58.50
2023-05-20T12:28:21.763Z,58.39
2023-05-20T12:31:16.102Z,58.67
2023-05-20T12:33:51.149Z,58.28
2023-05-20T12:36:46.679Z,57.02
2023-05-20T12:39:39.669Z,56.95
2023-05-20T12:42:31.697Z,56.59
2023-05-20T12:45:24.216Z,55.18
2023-05-20T12:47:57.892Z,55.73
2023-05-20T12:50:30.581Z,56.19
2023-05-20T12:53:23.450Z,56.56
2023-05-20T12:56:17.278Z,57.86
2023-05-20T12:59:10.518Z,57.40
2023-05-20T13:01:46.117Z,56.04
2023-05-20T13:04:28.579Z,54.53
2023-05-20T13:07:09.440Z,55.11
2023-05-20T13:09:55.775Z,54.35
2023-05-20T13:12:48.603Z,55.52
2023-05-20T13:15:24.402Z,56.07
2023-05-20T13:18:17.774Z,54.20
2023-05-20T13:21:12.220Z,54.76
2023-05-20T13:23:46.069Z,54.86
2023-05-20T13:26:22.003Z,54.41
2023-05-20T13:28:54.709Z,55.39
2023-05-20T13:31:37.212Z,53.67
2023-05-20T13:34:30.632Z,54.09
2023-05-20T13:37:13.422Z,54.41
2023-05-20T13:40:08.671Z,54.23
2023-05-20T13:42:51.948Z,54.49
2023-05-20T13:45:35.181Z,53.29
2023-05-20T13:48:29.495Z,53.21
2023-05-20T13:51:22.748Z,53.54
2023-05-20T13:53:58.343Z,53.27
2023-05-20T13:56:31.310Z,53.12
2023-05-20T13:59:14.169Z,53.98
2023-05-20T14:01:59.746Z,53.84
2023-05-20T14:04:55.141Z,54.11
2023-05-20T14:07:36.940Z,53.51
2023-05-20T14:10:23.713Z,53.38
2023-05-20T14:13:10.813Z,52.76
2023-05-20T14:15:57.195Z,52.17
2023-05-20T14:18:41.459Z,51.64
2023-05-20T14:21:17.460Z,49.82
2023-05-20T14:24:10.764Z,50.48
2023-05-20T14:26:53.635Z,51.91
2023-05-20T14:29:46.371Z,53.96
2023-05-20T14:32:24.058Z,55.13
2023-05-20T14:35:09.146Z,56.13
2023-05-20T14:37:53.850Z,57.07
2023-05-20T14:40:37.541Z,58.31
2023-05-20T14:43:32.380Z,58.88
2023-05-20T14:46:25.501Z,59.13
2023-05-20T14:49:01.686Z,60.17
2023-05-20T14:51:48.126Z,61.25
2023-05-20T14:54:25.169Z,62.54
2023-05-20T14:57:01.147Z,63.44
2023-05-20T14:59:45.613Z,63.81
2023-05-20T15:02:21.086Z,64.19
2023-05-20T15:04:56.765Z,64.78
2023-05-20T15:07:32.631Z,64.64
2023-05-20T15:10:09.864Z,64.65
2023-05-20T15:12:53.521Z,64.51
2023-05-20T15:15:29.186Z,64.95
2023-05-20T15:18:01.991Z,64.84
2023-05-20T15:20:44.012Z,64.06
2023-05-20T15:23:19.999Z,63.39
2023-05-20T15:25:52.850Z,62.92
2023-05-20T15:28:26.610Z,62.67
2023-05-20T15:31:01.519Z,61.72
2023-05-20T15:33:34.669Z,61.60
2023-05-20T15:36:10.274Z,60.32
2023-05-20T15:38:44.222Z,60.08
2023-05-20T15:41:21.966Z,60.15
2023-05-20T15:43:54.653Z,60.16
2023-05-20T15:46:30.413Z,59.16
2023-05-20T15:49:15.686Z,58.24
2023-05-20T15:51:55.675Z,59.08
2023-05-20T15:54:37.409Z,59.40
2023-05-20T15:57:10.719Z,60.32
2023-05-20T15:59:44.489Z,60.36
2023-05-20T16:02:18.379Z,60.88
2023-05-20T16:04:50.972Z,60.49
2023-05-20T16:07:23.909Z,60.41
2023-05-20T16:09:56.788Z,59.86
2023-05-20T16:12:29.559Z,58.14
2023-05-20T16:15:02.210Z,57.42
2023-05-20T16:17:35.147Z,56.93
2023-05-20T16:20:13.404Z,56.20
2023-05-20T16:22:59.203Z,54.89
2023-05-20T16:25:52.155Z,54.37
2023-05-20T16:28:36.600Z,53.22
2023-05-20T16:31:20.256Z,53.41
2023-05-20T16:34:13.866Z,52.69
2023-05-20T16:37:06.781Z,52.56
2023-05-20T16:39:52.643Z,52.19
2023-05-20T16:42:45.599Z,51.38
2023-05-20T16:45:20.995Z,51.10
2023-05-20T16:47:56.670Z,50.19
2023-05-20T16:50:49.914Z,48.40
2023-05-20T16:53:42.612Z,47.67
2023-05-20T16:56:37.283Z,47.99
2023-05-20T16:59:30.482Z,48.69
2023-05-20T17:02:14.045Z,49.02
2023-05-20T17:05:06.333Z,49.00
2023-05-20T17:08:00.869Z,49.39
2023-05-20T17:10:54.567Z,50.32
2023-05-20T17:13:47.309Z,51.37
2023-05-20T17:16:40.044Z,51.95
2023-05-20T17:19:32.889Z,53.47
2023-05-20T17:22:26.919Z,54.46
2023-05-20T17:25:20.058Z,55.60
2023-05-20T17:28:12.694Z,56.53
2023-05-20T17:30:58.203Z,57.33
2023-05-20T17:33:51.143Z,58.11
2023-05-20T17:36:29.041Z,58.36
2023-05-20T17:39:04.437Z,59.13
2023-05-20T17:41:47.713Z,59.97
2023-05-20T17:44:40.737Z,60.98
2023-05-20T17:47:24.579Z,61.89
2023-05-20T17:50:19.606Z,63.06
2023-05-20T17:53:12.465Z,64.18
2023-05-20T17:56:05.618Z,65.38
2023-05-20T17:58:58.477Z,66.46
2023-05-20T18:01:51.586Z,67.28
2023-05-20T18:04:34.577Z,67.89
2023-05-20T18:07:21.420Z,68.79
2023-05-20T18:09:54.014Z,69.00
2023-05-20T18:12:36.906Z,69.78
2023-05-20T18:15:23.734Z,70.29
2023-05-20T18:17:59.343Z,70.97
2023-05-20T18:20:52.277Z,71.76
2023-05-20T18:23:35.830Z,72.00
2023-05-20T18:26:28.535Z,72.66
2023-05-20T18:29:25.136Z,73.07
2023-05-20T18:32:17.907Z,73.46
2023-05-20T18:35:11.935Z,73.70
2023-05-20T18:37:57.241Z,73.96
2023-05-20T18:40:39.916Z,74.17
2023-05-20T18:43:22.759Z,74.64
2023-05-20T18:45:56.091Z,74.57
2023-05-20T18:48:28.898Z,75.26
2023-05-20T18:51:03.905Z,75.73
2023-05-20T18:53:57.269Z,75.99
2023-05-20T18:56:29.984Z,76.73
2023-05-20T18:59:12.704Z,76.92
2023-05-20T19:01:45.532Z,77.23
2023-05-20T19:04:38.632Z,77.74
2023-05-20T19:07:14.770Z,78.16
2023-05-20T19:09:58.477Z,78.42
2023-05-20T19:12:31.216Z,78.74
2023-05-20T19:15:10.440Z,78.93
2023-05-20T19:17:43.179Z,79.43
2023-05-20T19:20:15.994Z,79.82
2023-05-20T19:23:03.056Z,80.28
2023-05-20T19:25:56.880Z,80.70
2023-05-20T19:28:34.369Z,81.34
2023-05-20T19:31:27.422Z,82.39
2023-05-20T19:34:14.292Z,82.75
2023-05-20T19:37:07.375Z,83.16
2023-05-20T19:40:00.541Z,83.49
2023-05-20T19:42:53.343Z,83.44
2023-05-20T19:45:33.410Z,83.48
2023-05-20T19:48:07.042Z,83.47
2023-05-20T19:50:42.918Z,83.48
2023-05-20T19:53:36.434Z,83.60
2023-05-20T19:56:29.311Z,84.08
2023-05-20T19:59:21.872Z,84.63
2023-05-20T20:02:15.011Z,84.30
2023-05-20T20:04:47.820Z,84.36
2023-05-20T20:07:20.738Z,84.52
2023-05-20T20:10:03.559Z,84.53
2023-05-20T20:12:50.364Z,84.85
2023-05-20T20:15:27.154Z,84.90
2023-05-20T20:18:04.918Z,84.91
2023-05-20T20:20:40.155Z,85.12
2023-05-20T20:23:22.836Z,85.19
2023-05-20T20:26:06.001Z,85.34
2023-05-20T20:28:44.262Z,85.42
2023-05-20T20:31:28.256Z,85.69
2023-05-20T20:34:22.081Z,85.92
2023-05-20T20:36:57.339Z,85.83
2023-05-20T20:39:32.992Z,86.21
2023-05-20T20:42:09.203Z,86.55
2023-05-20T20:45:02.651Z,86.85
2023-05-20T20:47:56.389Z,87.22
2023-05-20T20:50:34.064Z,87.44
2023-05-20T20:53:09.801Z,87.64
2023-05-20T20:55:57.047Z,87.69
2023-05-20T20:58:54.120Z,87.90
2023-05-20T21:01:29.946Z,88.15
2023-05-20T21:04:02.787Z,88.15
2023-05-20T21:06:40.794Z,88.35
2023-05-20T21:09:20.841Z,88.69
2023-05-20T21:12:14.090Z,88.93
2023-05-20T21:14:46.672Z,88.96
2023-05-20T21:17:32.052Z,88.83
2023-05-20T21:20:25.488Z,88.95
2023-05-20T21:22:58.110Z,89.03
2023-05-20T21:25:34.516Z,88.94
2023-05-20T21:28:07.906Z,88.79
2023-05-20T21:31:01.470Z,88.95
2023-05-20T21:33:54.642Z,89.37
2023-05-20T21:36:47.275Z,89.65
2023-05-20T21:39:41.736Z,90.06
2023-05-20T21:42:25.948Z,90.16
2023-05-20T21:45:01.235Z,90.36
2023-05-20T21:47:46.476Z,90.58
2023-05-20T21:50:39.490Z,89.97
2023-05-20T21:53:33.194Z,89.75
2023-05-20T21:56:25.177Z,89.22
2023-05-20T21:59:01.241Z,88.74
2023-05-20T22:01:56.238Z,88.30
2023-05-20T22:04:43.203Z,87.73
2023-05-20T22:07:38.770Z,87.28
2023-05-20T22:10:34.474Z,86.93
2023-05-20T22:13:13.668Z,86.61
2023-05-20T22:15:49.540Z,86.34
2023-05-20T22:18:42.817Z,86.15
2023-05-20T22:21:15.840Z,85.85
2023-05-20T22:24:03.024Z,85.68
2023-05-20T22:26:38.472Z,85.62
2023-05-20T22:29:22.125Z,85.49
2023-05-20T22:32:16.641Z,85.41
2023-05-20T22:34:53.637Z,85.43
2023-05-20T22:37:46.886Z,85.42
2023-05-20T22:40:40.754Z,85.40
2023-05-20T22:43:18.315Z,85.42
2023-05-20T22:46:13.474Z,85.33
2023-05-20T22:48:58.629Z,85.49
2023-05-20T22:51:53.389Z,85.50
2023-05-20T22:54:45.017Z,85.70
2023-05-20T22:57:39.904Z,85.65
2023-05-20T23:00:33.265Z,85.76
2023-05-20T23:03:26.073Z,85.94
2023-05-20T23:06:22.809Z,86.01
2023-05-20T23:09:00.067Z,86.01
2023-05-20T23:11:52.704Z,86.19
2023-05-20T23:14:38.770Z,86.38
2023-05-20T23:17:14.171Z,86.69
2023-05-20T23:20:11.261Z,86.86
2023-05-20T23:23:08.224Z,86.97
2023-05-20T23:26:05.246Z,87.10
2023-05-20T23:28:38.930Z,87.32
2023-05-20T23:31:32.991Z,87.38
2023-05-20T23:34:27.618Z,87.54
2023-05-20T23:37:03.426Z,87.78
2023-05-20T23:39:46.881Z,87.77
2023-05-20T23:42:22.521Z,87.79
2023-05-20T23:45:15.628Z,87.94
2023-05-20T23:47:50.833Z,88.02
2023-05-20T23:50:43.507Z,88.30
2023-05-20T23:53:36.712Z,88.30
2023-05-20T23:56:29.566Z,88.36
2023-05-20T23:59:21.167Z,88.26
